createdAt,value
2022-07-27T00:02:52.171Z,0
2022-07-27T00:07:52.358Z,0
2022-07-27T00:12:52.828Z,0
2022-07-27T00:17:52.047Z,0
2022-07-27T00:22:52.074Z,0
2022-07-27T00:27:52.133Z,0
2022-07-27T00:32:52.534Z,0
2022-07-27T00:37:52.846Z,0
2022-07-27T00:42:52.009Z,0
2022-07-27T00:47:55.437Z,0
2022-07-27T00:52:52.013Z,0
2022-07-27T00:57:59.822Z,0
2022-07-27T01:02:52.427Z,0
2022-07-27T01:07:52.033Z,0
2022-07-27T01:12:52.324Z,0
2022-07-27T01:17:52.328Z,0
2022-07-27T01:22:52.434Z,0
2022-07-27T01:27:52.559Z,0
2022-07-27T01:32:52.616Z,0
2022-07-27T01:37:52.860Z,0
2022-07-27T01:42:51.956Z,0
2022-07-27T01:47:52.055Z,0
2022-07-27T01:52:52.434Z,0
2022-07-27T01:57:52.626Z,0
2022-07-27T02:02:52.797Z,0
2022-07-27T02:07:52.926Z,0
2022-07-27T02:12:52.235Z,0
2022-07-27T02:17:52.358Z,0
2022-07-27T02:22:52.646Z,0
2022-07-27T02:27:52.743Z,0
2022-07-27T02:32:52.226Z,0
2022-07-27T02:37:52.913Z,0
2022-07-27T02:42:52.319Z,0
2022-07-27T02:47:52.595Z,0
2022-07-27T02:52:52.250Z,0
2022-07-27T02:57:52.570Z,0
2022-07-27T03:02:52.685Z,0
2022-07-27T03:07:52.495Z,0
2022-07-27T03:12:52.877Z,0
2022-07-27T03:17:52.666Z,0
2022-07-27T03:22:52.347Z,0
2022-07-27T03:27:52.313Z,0
2022-07-27T03:32:52.215Z,0
2022-07-27T03:37:52.640Z,0
2022-07-27T03:42:52.107Z,0
2022-07-27T03:47:52.642Z,0
2022-07-27T03:52:53.079Z,0
2022-07-27T03:57:52.983Z,0
2022-07-27T04:02:52.443Z,0
2022-07-27T04:07:55.230Z,0
2022-07-27T04:12:52.639Z,0
2022-07-27T04:17:57.665Z,0
2022-07-27T04:22:52.467Z,0
2022-07-27T04:27:52.080Z,0
2022-07-27T04:32:52.613Z,0
2022-07-27T04:37:59.960Z,0
2022-07-27T04:42:52.389Z,0
2022-07-27T04:47:52.458Z,0
2022-07-27T04:52:52.750Z,0
2022-07-27T04:57:52.885Z,0
2022-07-27T05:02:52.178Z,0
2022-07-27T05:07:52.704Z,0
2022-07-27T05:12:52.967Z,0
2022-07-27T05:17:53.077Z,0
2022-07-27T05:22:52.360Z,0
2022-07-27T05:27:55.114Z,0
2022-07-27T05:32:52.325Z,0
2022-07-27T05:37:52.704Z,0
2022-07-27T05:42:52.897Z,0
2022-07-27T05:47:52.685Z,0
2022-07-27T05:52:52.942Z,0
2022-07-27T05:57:52.112Z,0
2022-07-27T06:02:52.466Z,0
2022-07-27T06:07:52.555Z,0
2022-07-27T06:12:52.963Z,0
2022-07-27T06:17:52.186Z,0
2022-07-27T06:22:52.398Z,0
2022-07-27T06:27:52.564Z,0.5
2022-07-27T06:32:52.635Z,0.5
2022-07-27T06:37:53.268Z,0.5
2022-07-27T06:42:52.534Z,0.5
2022-07-27T06:47:52.794Z,0.6
2022-07-27T06:52:53.041Z,0.6
2022-07-27T06:57:52.853Z,0.7
2022-07-27T07:02:52.983Z,0.7
2022-07-27T07:07:52.131Z,0.7
2022-07-27T07:12:52.398Z,0.7
2022-07-27T07:17:52.585Z,0.8
2022-07-27T07:22:53.089Z,0.8
2022-07-27T07:27:52.466Z,1
2022-07-27T07:32:53.055Z,1
2022-07-27T07:37:52.186Z,0.8
2022-07-27T07:42:52.308Z,0.8
2022-07-27T07:47:52.454Z,0.2
2022-07-27T07:52:52.704Z,0.2
2022-07-27T07:57:53.147Z,1.1
2022-07-27T08:02:52.742Z,1.1
2022-07-27T08:07:52.316Z,1.4
2022-07-27T08:12:52.417Z,1.4
2022-07-27T08:17:52.620Z,1.3
2022-07-27T08:22:52.674Z,1.3
2022-07-27T08:27:56.344Z,1.4
2022-07-27T08:32:52.754Z,1.4
2022-07-27T08:37:53.039Z,2
2022-07-27T08:42:52.362Z,2
2022-07-27T08:47:52.711Z,2.8
2022-07-27T08:52:53.091Z,2.8
2022-07-27T08:57:52.584Z,3.5
2022-07-27T09:02:52.542Z,3.5
2022-07-27T09:07:53.250Z,3.8
2022-07-27T09:12:52.739Z,3.8
2022-07-27T09:17:52.583Z,0.8
2022-07-27T09:22:53.008Z,0.8
2022-07-27T09:27:52.646Z,1.1
2022-07-27T09:32:53.149Z,1.1
2022-07-27T09:37:52.532Z,1.7
2022-07-27T09:47:52.985Z,2.6
2022-07-27T09:52:52.400Z,2.6
2022-07-27T09:57:52.640Z,2.5
2022-07-27T10:02:52.916Z,2.5
2022-07-27T10:07:53.174Z,4.7
2022-07-27T10:12:55.864Z,4.7
2022-07-27T10:17:53.015Z,4.8
2022-07-27T10:22:53.145Z,4.8
2022-07-27T10:27:52.268Z,1.9
2022-07-27T10:32:53.103Z,1.9
2022-07-27T10:37:52.450Z,1.8
2022-07-27T10:42:54.924Z,1.8
2022-07-27T10:47:53.068Z,2.5
2022-07-27T10:52:52.256Z,2.5
2022-07-27T10:57:52.562Z,2.6
2022-07-27T11:02:52.598Z,2.6
2022-07-27T11:08:38.333Z,1.7
2022-07-27T11:12:52.854Z,1.7
2022-07-27T11:18:05.319Z,5.5
2022-07-27T11:23:51.292Z,5.5
2022-07-27T11:27:52.816Z,2.9
2022-07-27T11:32:53.074Z,2.9
2022-07-27T11:37:52.541Z,1.7
2022-07-27T11:42:52.702Z,1.7
2022-07-27T11:47:52.986Z,3.2
2022-07-27T11:53:01.099Z,3.2
2022-07-27T11:57:52.286Z,3.5
2022-07-27T12:02:52.707Z,3.5
2022-07-27T12:07:53.084Z,3
2022-07-27T12:12:53.419Z,3
2022-07-27T12:17:52.628Z,3.2
2022-07-27T12:22:52.707Z,3.2
2022-07-27T12:27:52.864Z,5
2022-07-27T12:32:55.878Z,5
2022-07-27T12:37:53.342Z,2.1
2022-07-27T12:42:52.533Z,2.1
2022-07-27T12:47:52.747Z,4.8
2022-07-27T12:52:52.882Z,4.8
2022-07-27T12:57:57.218Z,2.3
2022-07-27T13:02:52.941Z,2.3
2022-07-27T13:07:53.302Z,2.3
2022-07-27T13:12:52.388Z,2.3
2022-07-27T13:17:52.595Z,2.1
2022-07-27T13:22:53.266Z,2.1
2022-07-27T13:27:52.625Z,1.7
2022-07-27T13:32:52.946Z,1.7
2022-07-27T13:37:53.127Z,1.9
2022-07-27T13:42:53.319Z,1.9
2022-07-27T13:47:52.501Z,1.9
2022-07-27T13:52:53.036Z,1.9
2022-07-27T13:57:53.165Z,1.6
2022-07-27T14:02:52.796Z,1.6
2022-07-27T14:07:52.510Z,1.7
2022-07-27T14:12:59.063Z,1.7
2022-07-27T14:17:53.167Z,1.6
2022-07-27T14:22:52.743Z,1.6
2022-07-27T14:27:53.344Z,1.6
2022-07-27T14:32:52.600Z,1.6
2022-07-27T14:37:52.840Z,1.4
2022-07-27T14:42:53.017Z,1.4
2022-07-27T14:47:52.555Z,1.3
2022-07-27T14:52:52.913Z,1.3
2022-07-27T14:57:53.077Z,1.1
2022-07-27T15:02:52.810Z,1.1
2022-07-27T15:07:52.722Z,1.1
2022-07-27T15:12:53.126Z,1.1
2022-07-27T15:17:52.528Z,1
2022-07-27T15:22:53.348Z,1
2022-07-27T15:27:52.384Z,0.9
2022-07-27T15:32:53.351Z,0.9
2022-07-27T15:37:55.159Z,0
2022-07-27T15:42:52.648Z,0
2022-07-27T15:47:53.007Z,0
2022-07-27T15:52:52.586Z,0
2022-07-27T15:57:52.952Z,0
2022-07-27T16:02:53.840Z,0
2022-07-27T16:07:52.859Z,0
2022-07-27T16:12:52.994Z,0
2022-07-27T16:17:53.121Z,0.3
2022-07-27T16:22:53.237Z,0.3
2022-07-27T16:27:52.673Z,0.5
2022-07-27T16:32:52.816Z,0.5
2022-07-27T16:37:53.198Z,0.5
2022-07-27T16:42:53.306Z,0.5
2022-07-27T16:47:52.662Z,0
2022-07-27T16:52:52.817Z,0
2022-07-27T16:57:52.992Z,0
2022-07-27T17:02:52.616Z,0
2022-07-27T17:07:52.762Z,0
2022-07-27T17:12:52.911Z,0
2022-07-27T17:17:53.194Z,0
2022-07-27T17:22:54.978Z,0
2022-07-27T17:27:53.149Z,0
2022-07-27T17:32:53.308Z,0
2022-07-27T17:38:07.165Z,0
2022-07-27T17:42:52.887Z,0
2022-07-27T17:47:53.062Z,0
2022-07-27T17:52:53.196Z,0
2022-07-27T17:57:53.371Z,0
2022-07-27T18:02:52.784Z,0
2022-07-27T18:07:53.168Z,0
2022-07-27T18:12:53.199Z,0
2022-07-27T18:17:53.596Z,0
2022-07-27T18:22:52.782Z,0
2022-07-27T18:27:52.895Z,0
2022-07-27T18:32:53.225Z,0
2022-07-27T18:37:53.332Z,0
2022-07-27T18:42:53.411Z,0
2022-07-27T18:47:52.651Z,0
2022-07-27T18:52:52.888Z,0
2022-07-27T18:57:53.017Z,0
2022-07-27T19:02:58.519Z,0
2022-07-27T19:07:53.989Z,0
2022-07-27T19:12:53.080Z,0
2022-07-27T19:17:53.211Z,0
2022-07-27T19:22:53.562Z,0
2022-07-27T19:27:52.783Z,0
2022-07-27T19:32:52.975Z,0
2022-07-27T19:37:53.187Z,0
2022-07-27T19:42:52.541Z,0
2022-07-27T19:47:52.674Z,0
2022-07-27T19:52:52.786Z,0
2022-07-27T19:57:52.905Z,0
2022-07-27T20:02:53.377Z,0
2022-07-27T20:07:52.689Z,0
2022-07-27T20:12:52.814Z,0
2022-07-27T20:17:52.902Z,0
2022-07-27T20:22:53.101Z,0
2022-07-27T20:27:53.412Z,0
2022-07-27T20:32:53.609Z,0
2022-07-27T20:37:52.626Z,0
2022-07-27T20:42:52.804Z,0
2022-07-27T20:47:52.973Z,0
2022-07-27T20:52:53.444Z,0
2022-07-27T20:57:54.586Z,0
2022-07-27T21:02:53.326Z,0
2022-07-27T21:07:53.181Z,0
2022-07-27T21:12:53.446Z,0
2022-07-27T21:17:52.584Z,0
2022-07-27T21:22:52.966Z,0
2022-07-27T21:27:54.279Z,0
2022-07-27T21:32:53.278Z,0
2022-07-27T21:37:52.722Z,0
2022-07-27T21:42:52.811Z,0
2022-07-27T21:47:53.013Z,0
2022-07-27T21:52:53.187Z,0
2022-07-27T21:57:53.464Z,0
2022-07-27T22:02:53.566Z,0
2022-07-27T22:07:52.771Z,0
2022-07-27T22:12:52.925Z,0
2022-07-27T22:17:53.053Z,0
2022-07-27T22:22:53.321Z,0
2022-07-27T22:27:53.449Z,0
2022-07-27T22:32:53.540Z,0
2022-07-27T22:37:52.744Z,0
2022-07-27T22:42:53.151Z,0
2022-07-27T22:47:53.204Z,0
2022-07-27T22:52:52.699Z,0
2022-07-27T22:57:53.134Z,0
2022-07-27T23:02:54.532Z,0
2022-07-27T23:07:52.748Z,0
2022-07-27T23:12:53.299Z,0
2022-07-27T23:17:53.421Z,0
2022-07-27T23:22:53.417Z,0
2022-07-27T23:27:53.250Z,0
2022-07-27T23:32:53.413Z,0
2022-07-27T23:37:53.598Z,0
2022-07-27T23:42:53.026Z,0
2022-07-27T23:47:53.270Z,0
2022-07-27T23:52:53.584Z,0
2022-07-27T23:57:52.961Z,0
